메인 페이지
METAR-TAF:

METAR-TAF

공항 :

조모 케냐타 국제공항

나이로비, 케냐

위도: 01-19S, 경도: 036-55E, 고도: 1624m

현재 날씨관측

예보는 31분 전, 00:30시(UTC)에 발표되었습니다.
3kt
온도 17°C
습도 94%
기압 1021 hPa
시정 10km 이상
고도 2300ft 상공 구름 많음

METAR: HKJK 100030Z 26003KT 9999 BKN023 17/16 Q1021 NOSIG

시각: 04:01 (01:01 UTC)

예보

예보는 2 시간 1분 전, 23:00시(UTC)에 발표되었습니다.
예보 대상 시간: 10일 00시부터 11일 06시까지 (UTC)
북북동5kt
시정 10km 이상
고도 1700ft 상공 구름 많음
일시적
10일 00시부터 10일 06시까지 (UTC)
고도 500ft 상공 구름 보통
고도 1600ft 상공 구름 많음
고도 8000ft 상공 구름 많음
약한비
전환 중
10일 08시부터 10일 11시까지 (UTC)
동북동10kt
고도 2300ft 상공 구름 조금, 적란운.
고도 2400ft 상공 구름 보통
일시적
10일 12시부터 10일 18시까지 (UTC)
고도 2000ft 상공 구름 조금, 적란운.
고도 2100ft 상공 구름 많음
고도 8000ft 상공 구름 많음
약한소나기
전환 중
10일 20시부터 10일 23시까지 (UTC)
북북동5kt
고도 1800ft 상공 구름 보통
일시적
11일 00시부터 11일 06시까지 (UTC)
고도 500ft 상공 구름 보통
고도 1500ft 상공 구름 많음
고도 8000ft 상공 구름 많음
약한비

TAF: HKJK 092300Z 1000/1106 03005KT 9999 BKN017 TEMPO 1000/1006 -RA SCT005 BKN016 BKN080 BECMG 1008/1011 06010KT FEW023CB SCT024 TEMPO 1012/1018 -SHRA FEW020CB BKN021 BKN080 BECMG 1020/1023 02005KT SCT018 TEMPO 1100/1106 -RA SCT005 BKN015 BKN080

4,000개 이상의 공항 관측 자료 및 예보 (METAR 및 TAF 보고).

지도상에서 검색 가능한 기상관측소가 노란 점과 빨간 점으로 표시되어 있습니다.

기상관측소 명을 보려면 표시 위로 마우스를 이동하세요.

날씨 관측과 예보를 보려면 클릭하세요.

지도 변경 : 확대하려면 엑스 표시가 있는 녹색 버튼, 축소하려면 빼기 표시가 있는 녹색 버튼, 다음 페이지의 지도를 보려면 녹색 화살표를 클릭하세요.


METAR-TAF: